createdAt,value
2023-08-09T00:00:00.603Z,48.13
2023-08-09T00:01:00.616Z,43.44
2023-08-09T00:02:00.569Z,41.94
2023-08-09T00:03:00.598Z,55.22
2023-08-09T00:04:00.653Z,42.58
2023-08-09T00:05:00.591Z,52.33
2023-08-09T00:06:00.580Z,40.12
2023-08-09T00:07:00.878Z,48.54
2023-08-09T00:08:00.536Z,46.50
2023-08-09T00:09:00.520Z,44.93
2023-08-09T00:10:00.556Z,55.50
2023-08-09T00:11:00.500Z,56.26
2023-08-09T00:12:00.502Z,46.89
2023-08-09T00:13:00.498Z,56.23
2023-08-09T00:14:00.478Z,43.95
2023-08-09T00:15:00.487Z,53.71
2023-08-09T00:16:01.532Z,48.57
2023-08-09T00:17:00.762Z,42.83
2023-08-09T00:18:00.524Z,44.80
2023-08-09T00:19:00.470Z,45.09
2023-08-09T00:20:00.460Z,45.85
2023-08-09T00:21:00.424Z,36.76
2023-08-09T00:22:00.415Z,45.58
2023-08-09T00:23:00.421Z,47.45
2023-08-09T00:24:00.417Z,38.33
2023-08-09T00:25:00.398Z,47.92
2023-08-09T00:26:00.385Z,46.52
2023-08-09T00:27:00.496Z,52.36
2023-08-09T00:28:00.396Z,42.14
2023-08-09T00:29:00.393Z,55.46
2023-08-09T00:30:00.358Z,55.96
2023-08-09T00:31:00.344Z,42.24
2023-08-09T00:32:00.367Z,41.04
2023-08-09T00:33:00.391Z,51.90
2023-08-09T00:34:00.353Z,35.79
2023-08-09T00:35:00.335Z,48.50
2023-08-09T00:36:00.312Z,38.98
2023-08-09T00:37:00.522Z,52.04
2023-08-09T00:38:00.322Z,48.28
2023-08-09T00:39:00.286Z,38.58
2023-08-09T00:40:00.276Z,37.68
2023-08-09T00:41:00.265Z,38.12
2023-08-09T00:42:00.275Z,52.01
2023-08-09T00:43:00.274Z,40.72
2023-08-09T00:44:00.249Z,48.37
2023-08-09T00:45:00.237Z,47.60
2023-08-09T00:46:00.265Z,43.61
2023-08-09T00:47:00.579Z,51.26
2023-08-09T00:48:00.295Z,51.23
2023-08-09T00:49:00.205Z,46.92
2023-08-09T00:50:00.204Z,47.81
2023-08-09T00:51:00.206Z,45.83
2023-08-09T00:52:00.209Z,50.92
2023-08-09T00:53:00.205Z,52.23
2023-08-09T00:54:00.183Z,52.14
2023-08-09T00:55:00.242Z,48.29
2023-08-09T00:56:00.153Z,56.69
2023-08-09T00:57:00.471Z,55.16
2023-08-09T00:58:00.138Z,55.62
2023-08-09T00:59:00.219Z,52.41
2023-08-09T01:00:01.157Z,49.39
2023-08-09T01:01:00.153Z,51.02
2023-08-09T01:02:00.143Z,52.08
2023-08-09T01:03:00.185Z,57.51
2023-08-09T01:04:00.101Z,55.64
2023-08-09T01:05:00.112Z,51.31
2023-08-09T01:06:00.105Z,49.41
2023-08-09T01:07:00.437Z,53.99
2023-08-09T01:08:00.056Z,50.89
2023-08-09T01:09:00.052Z,55.77
2023-08-09T01:10:00.128Z,49.67
2023-08-09T01:11:00.061Z,50.36
2023-08-09T01:12:00.057Z,56.83
2023-08-09T01:13:00.017Z,57.75
2023-08-09T01:14:00.009Z,46.79
2023-08-09T01:14:59.995Z,45.70
2023-08-09T01:16:01.076Z,49.85
2023-08-09T01:17:00.514Z,59.97
2023-08-09T01:18:00.008Z,40.82
2023-08-09T01:18:59.971Z,45.98
2023-08-09T01:19:59.955Z,55.98
2023-08-09T01:20:59.980Z,57.21
2023-08-09T01:21:59.941Z,48.40
2023-08-09T01:22:59.941Z,55.97
2023-08-09T01:23:59.935Z,54.40
2023-08-09T01:24:59.985Z,55.66
2023-08-09T01:25:59.941Z,45.65
2023-08-09T01:27:00.329Z,41.25
2023-08-09T01:27:59.906Z,43.40
2023-08-09T01:28:59.889Z,51.73
2023-08-09T01:29:59.928Z,53.00
2023-08-09T01:30:59.908Z,40.46
2023-08-09T01:31:59.877Z,45.92
2023-08-09T01:32:59.924Z,48.94
2023-08-09T01:33:59.906Z,56.01
2023-08-09T01:34:59.880Z,43.09
2023-08-09T01:35:59.838Z,51.73
2023-08-09T01:37:00.063Z,36.64
2023-08-09T01:37:59.820Z,48.80
2023-08-09T01:38:59.824Z,49.31
2023-08-09T01:39:59.829Z,51.07
2023-08-09T01:40:59.817Z,43.25
2023-08-09T01:41:59.792Z,46.55
2023-08-09T01:42:59.794Z,50.86
2023-08-09T01:43:59.800Z,56.09
2023-08-09T01:44:59.787Z,59.17
2023-08-09T01:45:59.782Z,49.60
2023-08-09T01:47:00.006Z,58.29
2023-08-09T01:47:59.791Z,48.28
2023-08-09T01:48:59.751Z,50.65
2023-08-09T01:49:59.984Z,55.48
2023-08-09T01:50:59.708Z,54.83
2023-08-09T01:51:59.715Z,50.12
2023-08-09T01:52:59.779Z,49.14
2023-08-09T01:53:59.756Z,42.35
2023-08-09T01:54:59.687Z,58.91
2023-08-09T01:55:59.681Z,40.67
2023-08-09T01:57:00.027Z,51.49
2023-08-09T01:57:59.663Z,52.38
2023-08-09T01:58:59.686Z,55.12
2023-08-09T01:59:59.643Z,56.37
2023-08-09T02:00:59.677Z,48.51
2023-08-09T02:01:59.681Z,56.53
2023-08-09T02:02:59.681Z,54.32
2023-08-09T02:03:59.652Z,54.11
2023-08-09T02:04:59.610Z,47.34
2023-08-09T02:05:59.607Z,50.68
2023-08-09T02:06:59.849Z,49.16
2023-08-09T02:07:59.622Z,50.29
2023-08-09T02:08:59.591Z,48.55
2023-08-09T02:09:59.585Z,50.79
2023-08-09T02:10:59.570Z,51.38
2023-08-09T02:11:59.558Z,57.93
2023-08-09T02:12:59.603Z,57.15
2023-08-09T02:13:59.543Z,57.18
2023-08-09T02:14:59.539Z,59.28
2023-08-09T02:15:59.528Z,54.54
2023-08-09T02:17:00.198Z,56.32
2023-08-09T02:17:59.632Z,56.50
2023-08-09T02:18:59.509Z,60.29
2023-08-09T02:19:59.496Z,54.81
2023-08-09T02:20:59.485Z,58.59
2023-08-09T02:21:59.506Z,53.54
2023-08-09T02:22:59.479Z,54.54
2023-08-09T02:23:59.472Z,60.91
2023-08-09T02:24:59.460Z,51.87
2023-08-09T02:25:59.447Z,51.53
2023-08-09T02:26:59.736Z,56.87
2023-08-09T02:27:59.429Z,48.50
2023-08-09T02:28:59.423Z,56.54
2023-08-09T02:29:59.423Z,48.69
2023-08-09T02:30:59.440Z,57.59
2023-08-09T02:31:59.431Z,48.61
2023-08-09T02:32:59.454Z,54.72
2023-08-09T02:33:59.396Z,52.77
2023-08-09T02:34:59.371Z,52.36
2023-08-09T02:35:59.420Z,46.25
2023-08-09T02:36:59.643Z,57.53
2023-08-09T02:37:59.366Z,49.31
2023-08-09T02:38:59.358Z,53.34
2023-08-09T02:39:59.343Z,57.48
2023-08-09T02:40:59.361Z,55.00
2023-08-09T02:41:59.330Z,60.01
2023-08-09T02:42:59.347Z,58.15
2023-08-09T02:43:59.311Z,54.50
2023-08-09T02:44:59.308Z,51.41
2023-08-09T02:45:59.376Z,60.61
2023-08-09T02:46:59.540Z,55.93
2023-08-09T02:47:59.321Z,52.74
2023-08-09T02:48:59.271Z,53.46
2023-08-09T02:49:59.260Z,46.24
2023-08-09T02:50:59.280Z,51.61
2023-08-09T02:51:59.242Z,45.11
2023-08-09T02:52:59.235Z,59.11
2023-08-09T02:53:59.226Z,46.62
2023-08-09T02:54:59.251Z,51.21
2023-08-09T02:55:59.241Z,44.90
2023-08-09T02:56:59.330Z,59.71
2023-08-09T02:57:59.197Z,50.63
2023-08-09T02:58:59.197Z,58.44
2023-08-09T02:59:59.207Z,47.00
2023-08-09T03:00:59.173Z,53.96
2023-08-09T03:01:59.218Z,54.30
2023-08-09T03:02:59.213Z,59.88
2023-08-09T03:03:59.204Z,58.26
2023-08-09T03:04:59.167Z,56.35
2023-08-09T03:05:59.135Z,59.96
2023-08-09T03:06:59.463Z,52.94
2023-08-09T03:07:59.117Z,52.50
2023-08-09T03:08:59.109Z,53.82
2023-08-09T03:09:59.133Z,57.02
2023-08-09T03:10:59.092Z,52.80
2023-08-09T03:11:59.082Z,50.63
2023-08-09T03:12:59.073Z,55.43
2023-08-09T03:13:59.060Z,51.69
2023-08-09T03:14:59.085Z,53.55
2023-08-09T03:15:59.073Z,56.35
2023-08-09T03:16:59.030Z,52.52
2023-08-09T03:18:00.092Z,59.90
2023-08-09T03:18:59.023Z,57.02
2023-08-09T03:19:59.040Z,57.40
2023-08-09T03:20:59.011Z,57.44
2023-08-09T03:21:59.019Z,51.99
2023-08-09T03:22:58.999Z,60.52
2023-08-09T03:23:59.021Z,56.68
2023-08-09T03:24:59.014Z,60.77
2023-08-09T03:25:58.985Z,62.20
2023-08-09T03:26:59.004Z,59.14
2023-08-09T03:27:58.960Z,62.50
2023-08-09T03:28:58.980Z,66.03
2023-08-09T03:29:58.948Z,65.00
2023-08-09T03:30:58.939Z,64.38
2023-08-09T03:31:58.956Z,61.18
2023-08-09T03:32:58.948Z,65.90
2023-08-09T03:33:58.952Z,63.69
2023-08-09T03:34:58.914Z,60.62
2023-08-09T03:35:58.897Z,64.47
2023-08-09T03:36:58.983Z,62.10
2023-08-09T03:37:58.911Z,64.99
2023-08-09T03:38:59.920Z,64.38
2023-08-09T03:39:58.862Z,62.40
2023-08-09T03:40:58.864Z,64.93
2023-08-09T03:41:58.857Z,64.25
2023-08-09T03:42:58.902Z,67.95
2023-08-09T03:43:58.833Z,65.22
2023-08-09T03:44:58.825Z,61.31
2023-08-09T03:45:58.853Z,59.96
2023-08-09T03:46:58.826Z,63.70
2023-08-09T03:47:58.847Z,62.49
2023-08-09T03:48:58.802Z,63.73
2023-08-09T03:49:58.784Z,63.63
2023-08-09T03:50:58.805Z,63.45
2023-08-09T03:51:58.782Z,59.35
2023-08-09T03:52:58.807Z,60.32
2023-08-09T03:53:58.753Z,60.42
2023-08-09T03:54:58.764Z,65.71
2023-08-09T03:55:58.743Z,58.54
2023-08-09T03:56:58.763Z,58.68
2023-08-09T03:57:58.756Z,64.32
2023-08-09T03:58:58.731Z,63.29
2023-08-09T03:59:58.710Z,61.34
2023-08-09T04:00:58.738Z,60.61
2023-08-09T04:01:58.763Z,59.64
2023-08-09T04:02:58.737Z,61.71
2023-08-09T04:03:58.683Z,57.81
2023-08-09T04:04:58.698Z,60.09
2023-08-09T04:05:58.677Z,60.64
2023-08-09T04:06:58.685Z,62.48
2023-08-09T04:07:58.672Z,63.00
2023-08-09T04:08:58.641Z,62.51
2023-08-09T04:09:58.632Z,64.69
2023-08-09T04:10:58.653Z,64.81
2023-08-09T04:11:58.639Z,62.15
2023-08-09T04:12:58.624Z,62.76
2023-08-09T04:13:58.615Z,66.21
2023-08-09T04:14:58.595Z,61.02
2023-08-09T04:15:58.639Z,63.52
2023-08-09T04:16:58.592Z,60.34
2023-08-09T04:17:58.640Z,62.40
2023-08-09T04:18:58.557Z,66.32
2023-08-09T04:19:58.553Z,66.39
2023-08-09T04:20:58.568Z,67.79
2023-08-09T04:21:59.027Z,62.96
2023-08-09T04:22:58.533Z,65.33
2023-08-09T04:23:58.540Z,66.58
2023-08-09T04:24:58.521Z,62.89
2023-08-09T04:25:58.538Z,60.87
2023-08-09T04:26:58.506Z,65.45
2023-08-09T04:27:58.503Z,68.59
2023-08-09T04:28:58.499Z,61.78
2023-08-09T04:29:58.518Z,60.64
2023-08-09T04:30:58.494Z,61.66
2023-08-09T04:31:58.463Z,63.07
2023-08-09T04:32:58.480Z,65.88
2023-08-09T04:33:58.459Z,62.77
2023-08-09T04:34:58.482Z,63.45
2023-08-09T04:35:58.428Z,65.21
2023-08-09T04:36:58.430Z,64.01
2023-08-09T04:37:58.421Z,61.90
2023-08-09T04:38:58.409Z,63.45
2023-08-09T04:39:58.428Z,64.48
2023-08-09T04:40:58.396Z,64.22
2023-08-09T04:41:58.386Z,62.38
2023-08-09T04:42:58.379Z,62.93
2023-08-09T04:43:58.526Z,64.31
2023-08-09T04:44:58.386Z,64.65
2023-08-09T04:45:58.395Z,61.17
2023-08-09T04:46:58.344Z,64.03
2023-08-09T04:47:58.361Z,63.92
2023-08-09T04:48:58.374Z,58.97
2023-08-09T04:49:58.320Z,58.40
2023-08-09T04:50:58.318Z,56.05
2023-08-09T04:51:58.304Z,57.43
2023-08-09T04:52:58.310Z,58.96
2023-08-09T04:53:58.325Z,58.86
2023-08-09T04:54:58.292Z,56.92
2023-08-09T04:55:58.274Z,59.77
2023-08-09T04:56:58.265Z,61.92
2023-08-09T04:57:58.283Z,59.07
2023-08-09T04:58:58.290Z,60.88
2023-08-09T04:59:58.253Z,59.58
2023-08-09T05:00:58.256Z,62.21
2023-08-09T05:01:58.241Z,62.60
2023-08-09T05:02:58.310Z,58.20
2023-08-09T05:03:58.242Z,57.17
2023-08-09T05:04:58.246Z,61.03
2023-08-09T05:05:58.208Z,62.25
2023-08-09T05:06:58.204Z,56.65
2023-08-09T05:07:58.220Z,59.94
2023-08-09T05:08:58.183Z,60.16
2023-08-09T05:09:58.172Z,60.11
2023-08-09T05:10:58.162Z,60.67
2023-08-09T05:11:58.151Z,63.00
2023-08-09T05:12:58.173Z,61.83
2023-08-09T05:13:58.144Z,61.16
2023-08-09T05:14:58.135Z,62.81
2023-08-09T05:15:58.117Z,59.92
2023-08-09T05:16:58.209Z,63.13
2023-08-09T05:17:58.192Z,61.09
2023-08-09T05:18:58.099Z,63.39
2023-08-09T05:19:58.127Z,62.07
2023-08-09T05:20:58.084Z,62.67
2023-08-09T05:21:58.101Z,60.91
2023-08-09T05:22:58.095Z,67.23
2023-08-09T05:23:58.060Z,63.85
2023-08-09T05:24:58.048Z,58.76
2023-08-09T05:25:58.049Z,66.22
2023-08-09T05:26:58.054Z,64.13
2023-08-09T05:27:58.043Z,64.84
2023-08-09T05:28:58.016Z,64.72
2023-08-09T05:29:58.004Z,62.23
2023-08-09T05:30:58.046Z,60.04
2023-08-09T05:31:58.018Z,61.11
2023-08-09T05:32:58.058Z,61.29
2023-08-09T05:33:57.977Z,63.56
2023-08-09T05:34:57.975Z,58.20
2023-08-09T05:35:57.963Z,59.02
2023-08-09T05:36:57.978Z,60.43
2023-08-09T05:37:57.948Z,62.18
2023-08-09T05:38:57.944Z,61.12
2023-08-09T05:39:57.925Z,61.18
2023-08-09T05:40:57.947Z,60.99
2023-08-09T05:41:57.944Z,55.92
2023-08-09T05:42:57.904Z,58.68
2023-08-09T05:43:57.898Z,59.40
2023-08-09T05:44:57.894Z,56.71
2023-08-09T05:45:57.911Z,58.32
2023-08-09T05:46:57.888Z,54.28
2023-08-09T05:47:57.943Z,60.95
2023-08-09T05:48:58.865Z,56.49
2023-08-09T05:49:57.861Z,58.21
2023-08-09T05:50:57.872Z,58.99
2023-08-09T05:51:57.846Z,59.43
2023-08-09T05:52:57.850Z,60.91
2023-08-09T05:53:57.833Z,60.30
2023-08-09T05:54:57.821Z,56.19
2023-08-09T05:55:57.838Z,57.95
2023-08-09T05:56:57.834Z,55.31
2023-08-09T05:57:57.802Z,54.35
2023-08-09T05:59:00.681Z,56.28
2023-08-09T05:59:57.805Z,58.29
2023-08-09T06:00:57.849Z,60.37
2023-08-09T06:01:57.848Z,58.51
2023-08-09T06:02:58.828Z,56.64
2023-08-09T06:03:57.882Z,55.85
2023-08-09T06:04:57.769Z,61.51
2023-08-09T06:05:57.757Z,58.35
2023-08-09T06:06:57.786Z,57.87
2023-08-09T06:07:57.727Z,53.62
2023-08-09T06:08:57.704Z,59.84
2023-08-09T06:09:58.731Z,60.90
2023-08-09T06:10:57.700Z,59.05
2023-08-09T06:11:57.710Z,57.68
2023-08-09T06:12:59.886Z,58.73
2023-08-09T06:13:57.680Z,61.68
2023-08-09T06:14:57.699Z,59.30
2023-08-09T06:15:57.669Z,58.46
2023-08-09T06:16:57.716Z,60.22
2023-08-09T06:17:57.665Z,58.20
2023-08-09T06:18:57.672Z,53.56
2023-08-09T06:19:57.670Z,60.59
2023-08-09T06:20:57.629Z,52.76
2023-08-09T06:21:57.620Z,59.83
2023-08-09T06:22:57.618Z,57.30
2023-08-09T06:23:57.637Z,55.83
2023-08-09T06:24:57.616Z,57.01
2023-08-09T06:25:58.595Z,58.13
2023-08-09T06:26:57.609Z,53.18
2023-08-09T06:27:57.585Z,52.77
2023-08-09T06:28:57.600Z,56.39
2023-08-09T06:29:57.566Z,55.00
2023-08-09T06:30:57.602Z,57.95
2023-08-09T06:31:58.553Z,54.34
2023-08-09T06:32:57.603Z,56.60
2023-08-09T06:33:57.570Z,55.09
2023-08-09T06:34:57.537Z,57.11
2023-08-09T06:35:57.522Z,56.05
2023-08-09T06:36:57.589Z,55.94
2023-08-09T06:38:09.522Z,56.14
2023-08-09T06:38:59.531Z,57.94
2023-08-09T06:39:57.501Z,55.22
2023-08-09T06:40:57.484Z,55.84
2023-08-09T06:41:57.488Z,56.85
2023-08-09T06:42:57.525Z,54.49
2023-08-09T06:43:57.470Z,56.20
2023-08-09T06:44:57.474Z,56.09
2023-08-09T06:45:57.481Z,55.57
2023-08-09T06:46:57.451Z,54.29
2023-08-09T06:47:57.575Z,56.26
2023-08-09T06:48:57.459Z,57.82
2023-08-09T06:49:57.437Z,49.79
2023-08-09T06:50:57.434Z,50.77
2023-08-09T06:51:57.501Z,57.07
2023-08-09T06:52:57.455Z,56.69
2023-08-09T06:53:57.410Z,55.75
2023-08-09T06:54:58.282Z,56.36
2023-08-09T06:55:57.393Z,48.78
2023-08-09T06:56:57.416Z,55.95
2023-08-09T06:57:57.375Z,58.12
2023-08-09T06:58:57.384Z,56.71
2023-08-09T06:59:57.372Z,58.70
2023-08-09T07:00:57.369Z,56.45
2023-08-09T07:01:57.443Z,54.06
2023-08-09T07:02:57.384Z,60.02
2023-08-09T07:03:57.377Z,55.52
2023-08-09T07:04:57.629Z,58.43
2023-08-09T07:05:57.320Z,56.44
2023-08-09T07:06:57.352Z,59.58
2023-08-09T07:07:58.301Z,56.74
2023-08-09T07:08:57.318Z,58.58
2023-08-09T07:09:57.303Z,58.92
2023-08-09T07:10:57.392Z,56.84
2023-08-09T07:11:57.311Z,55.80
2023-08-09T07:12:57.279Z,57.09
2023-08-09T07:13:57.270Z,55.90
2023-08-09T07:14:57.264Z,59.38
2023-08-09T07:15:57.306Z,52.83
2023-08-09T07:16:57.300Z,56.22
2023-08-09T07:17:57.285Z,53.42
2023-08-09T07:18:59.558Z,58.40
2023-08-09T07:19:58.237Z,55.93
2023-08-09T07:20:57.258Z,54.08
2023-08-09T07:21:57.222Z,58.00
2023-08-09T07:22:57.220Z,55.67
2023-08-09T07:23:58.265Z,55.05
2023-08-09T07:24:58.234Z,52.75
2023-08-09T07:25:57.228Z,53.65
2023-08-09T07:26:57.195Z,56.60
2023-08-09T07:27:57.192Z,54.38
2023-08-09T07:28:57.191Z,52.86
2023-08-09T07:29:57.237Z,54.53
2023-08-09T07:30:57.176Z,49.90
2023-08-09T07:31:57.277Z,55.63
2023-08-09T07:32:57.269Z,50.93
2023-08-09T07:33:57.157Z,52.78
2023-08-09T07:34:57.176Z,54.35
2023-08-09T07:35:57.153Z,57.92
2023-08-09T07:36:57.135Z,55.95
2023-08-09T07:37:57.139Z,55.35
2023-08-09T07:38:57.621Z,53.38
2023-08-09T07:39:57.138Z,62.88
2023-08-09T07:40:58.115Z,52.94
2023-08-09T07:41:57.121Z,59.70
2023-08-09T07:42:57.107Z,59.62
2023-08-09T07:43:57.125Z,58.32
2023-08-09T07:44:57.083Z,57.34
2023-08-09T07:45:57.107Z,57.11
2023-08-09T07:46:57.069Z,60.49
2023-08-09T07:47:57.114Z,63.79
2023-08-09T07:48:57.079Z,55.94
2023-08-09T07:49:57.052Z,60.48
2023-08-09T07:50:57.035Z,63.25
2023-08-09T07:51:57.031Z,60.65
2023-08-09T07:52:57.022Z,60.39
2023-08-09T07:53:57.041Z,59.84
2023-08-09T07:54:58.014Z,60.10
2023-08-09T07:55:57.005Z,60.65
2023-08-09T07:56:57.000Z,56.79
2023-08-09T07:57:57.017Z,58.12
2023-08-09T07:58:57.014Z,55.45
2023-08-09T08:00:03.443Z,58.57
2023-08-09T08:00:57.970Z,59.23
2023-08-09T08:01:56.993Z,62.27
2023-08-09T08:02:57.044Z,57.34
2023-08-09T08:03:57.018Z,60.64
2023-08-09T08:04:56.947Z,59.18
2023-08-09T08:05:56.935Z,59.14
2023-08-09T08:06:56.931Z,62.06
2023-08-09T08:07:56.949Z,58.54
2023-08-09T08:08:56.921Z,60.95
2023-08-09T08:09:56.910Z,59.19
2023-08-09T08:10:56.906Z,63.01
2023-08-09T08:12:00.286Z,63.68
2023-08-09T08:12:56.918Z,63.03
2023-08-09T08:13:56.896Z,65.32
2023-08-09T08:14:56.869Z,65.09
2023-08-09T08:15:56.903Z,61.64
2023-08-09T08:16:56.883Z,63.50
2023-08-09T08:17:56.877Z,60.22
2023-08-09T08:18:56.843Z,56.17
2023-08-09T08:19:59.199Z,57.65
2023-08-09T08:20:56.833Z,60.47
2023-08-09T08:21:56.854Z,60.20
2023-08-09T08:22:56.814Z,59.41
2023-08-09T08:23:56.813Z,60.99
2023-08-09T08:24:56.809Z,58.07
2023-08-09T08:25:56.968Z,53.46
2023-08-09T08:26:56.823Z,58.08
2023-08-09T08:27:56.781Z,53.26
2023-08-09T08:28:56.780Z,57.65
2023-08-09T08:29:56.772Z,55.22
2023-08-09T08:30:56.807Z,59.28
2023-08-09T08:31:56.950Z,54.54
2023-08-09T08:32:56.822Z,60.69
2023-08-09T08:33:56.747Z,59.72
2023-08-09T08:34:56.742Z,57.08
2023-08-09T08:36:08.580Z,54.76
2023-08-09T08:36:58.732Z,57.35
2023-08-09T08:37:56.716Z,57.95
2023-08-09T08:38:56.710Z,56.92
2023-08-09T08:39:56.704Z,53.71
2023-08-09T08:40:56.719Z,59.62
2023-08-09T08:41:56.688Z,60.59
2023-08-09T08:42:56.680Z,57.67
2023-08-09T08:43:56.669Z,58.98
2023-08-09T08:44:56.685Z,59.69
2023-08-09T08:45:56.707Z,56.90
2023-08-09T08:46:56.651Z,57.26
2023-08-09T08:47:56.654Z,58.65
2023-08-09T08:48:56.636Z,49.27
2023-08-09T08:49:56.685Z,51.61
2023-08-09T08:50:56.626Z,56.72
2023-08-09T08:51:56.613Z,57.06
2023-08-09T08:52:56.622Z,58.51
2023-08-09T08:53:56.616Z,58.94
2023-08-09T08:54:56.619Z,59.70
2023-08-09T08:55:56.595Z,59.50
2023-08-09T08:56:56.586Z,58.30
2023-08-09T08:57:56.584Z,55.03
2023-08-09T08:58:56.578Z,56.64
2023-08-09T08:59:56.668Z,55.37
2023-08-09T09:00:56.637Z,59.97
2023-08-09T09:01:56.552Z,56.70
2023-08-09T09:02:56.573Z,55.87
2023-08-09T09:03:56.620Z,51.78
2023-08-09T09:04:56.552Z,54.58
2023-08-09T09:05:56.533Z,52.41
2023-08-09T09:06:56.521Z,51.22
2023-08-09T09:07:56.512Z,55.94
2023-08-09T09:08:56.539Z,52.51
2023-08-09T09:09:56.497Z,52.48
2023-08-09T09:10:56.490Z,56.31
2023-08-09T09:11:56.483Z,50.76
2023-08-09T09:12:56.465Z,55.52
2023-08-09T09:13:57.838Z,55.32
2023-08-09T09:14:56.469Z,55.56
2023-08-09T09:15:56.486Z,56.64
2023-08-09T09:16:56.448Z,58.36
2023-08-09T09:17:56.745Z,56.46
2023-08-09T09:18:56.468Z,53.38
2023-08-09T09:19:56.437Z,57.26
2023-08-09T09:20:56.449Z,60.74
2023-08-09T09:21:56.415Z,58.67
2023-08-09T09:22:56.484Z,57.33
2023-08-09T09:23:56.423Z,56.67
2023-08-09T09:24:56.397Z,61.76
2023-08-09T09:25:56.388Z,58.19
2023-08-09T09:26:56.381Z,57.73
2023-08-09T09:27:56.665Z,60.24
2023-08-09T09:28:56.365Z,59.51
2023-08-09T09:29:56.363Z,56.41
2023-08-09T09:30:56.407Z,59.91
2023-08-09T09:31:56.371Z,61.44
2023-08-09T09:32:56.392Z,59.05
2023-08-09T09:33:56.337Z,60.00
2023-08-09T09:34:56.326Z,50.43
2023-08-09T09:35:57.180Z,51.03
2023-08-09T09:36:56.338Z,56.05
2023-08-09T09:37:56.302Z,52.39
2023-08-09T09:38:56.293Z,49.82
2023-08-09T09:39:56.735Z,53.16
2023-08-09T09:40:57.285Z,50.07
2023-08-09T09:41:57.271Z,55.99
2023-08-09T09:42:57.265Z,57.90
2023-08-09T09:43:56.274Z,56.52
2023-08-09T09:44:56.256Z,55.63
2023-08-09T09:45:56.271Z,59.90
2023-08-09T09:46:56.304Z,63.43
2023-08-09T09:47:57.615Z,59.05
2023-08-09T09:48:56.228Z,67.36
2023-08-09T09:49:56.221Z,72.77
2023-08-09T09:50:56.264Z,72.72
2023-08-09T09:51:56.206Z,73.13
2023-08-09T09:52:56.201Z,72.86
2023-08-09T09:53:56.191Z,72.80
2023-08-09T09:54:56.187Z,68.17
2023-08-09T09:55:56.198Z,54.35
2023-08-09T09:56:56.166Z,56.09
2023-08-09T09:57:56.159Z,53.77
2023-08-09T09:58:56.156Z,50.68
2023-08-09T09:59:56.141Z,57.25
2023-08-09T10:00:56.177Z,57.01
2023-08-09T10:01:56.142Z,55.11
2023-08-09T10:02:56.237Z,54.15
2023-08-09T10:03:56.115Z,60.28
2023-08-09T10:04:56.169Z,58.37
2023-08-09T10:05:56.142Z,54.20
2023-08-09T10:06:56.091Z,48.79
2023-08-09T10:07:59.629Z,54.47
2023-08-09T10:08:56.080Z,53.12
2023-08-09T10:09:56.104Z,55.53
2023-08-09T10:10:56.095Z,54.92
2023-08-09T10:11:56.058Z,57.43
2023-08-09T10:12:56.102Z,55.81
2023-08-09T10:13:56.053Z,52.22
2023-08-09T10:14:56.065Z,51.46
2023-08-09T10:15:56.019Z,50.12
2023-08-09T10:17:02.186Z,56.60
2023-08-09T10:17:58.009Z,56.02
2023-08-09T10:18:56.003Z,53.58
2023-08-09T10:19:56.019Z,55.73
2023-08-09T10:20:55.995Z,58.79
2023-08-09T10:21:55.977Z,56.51
2023-08-09T10:22:57.485Z,56.95
2023-08-09T10:23:56.993Z,56.86
2023-08-09T10:24:55.980Z,58.94
2023-08-09T10:25:55.978Z,56.02
2023-08-09T10:26:55.948Z,57.57
2023-08-09T10:27:55.931Z,57.51
2023-08-09T10:28:55.982Z,63.08
2023-08-09T10:29:55.937Z,56.98
2023-08-09T10:30:55.956Z,50.99
2023-08-09T10:31:56.115Z,63.48
2023-08-09T10:32:56.135Z,59.73
2023-08-09T10:33:55.931Z,63.50
2023-08-09T10:34:55.884Z,62.24
2023-08-09T10:35:55.899Z,59.74
2023-08-09T10:36:55.891Z,60.87
2023-08-09T10:37:55.891Z,50.33
2023-08-09T10:38:55.884Z,61.51
2023-08-09T10:39:55.848Z,54.51
2023-08-09T10:40:55.849Z,58.94
2023-08-09T10:41:55.879Z,59.66
2023-08-09T10:42:55.875Z,59.69
2023-08-09T10:43:55.825Z,61.33
2023-08-09T10:44:55.824Z,58.37
2023-08-09T10:45:55.839Z,57.43
2023-08-09T10:46:55.828Z,49.64
2023-08-09T10:47:55.829Z,54.63
2023-08-09T10:48:55.788Z,55.32
2023-08-09T10:49:55.815Z,50.77
2023-08-09T10:50:55.775Z,52.09
2023-08-09T10:51:55.764Z,53.80
2023-08-09T10:52:55.775Z,53.94
2023-08-09T10:53:55.745Z,52.30
2023-08-09T10:54:55.736Z,53.11
2023-08-09T10:55:55.737Z,53.31
2023-08-09T10:56:55.754Z,56.79
2023-08-09T10:57:55.803Z,56.04
2023-08-09T10:58:55.706Z,55.93
2023-08-09T10:59:55.783Z,55.91
2023-08-09T11:00:55.728Z,56.91
2023-08-09T11:01:55.712Z,57.55
2023-08-09T11:02:55.806Z,61.66
2023-08-09T11:03:55.751Z,61.15
2023-08-09T11:04:55.668Z,63.07
2023-08-09T11:05:55.657Z,59.19
2023-08-09T11:06:55.671Z,56.48
2023-08-09T11:07:55.636Z,55.48
2023-08-09T11:08:55.629Z,61.54
2023-08-09T11:09:55.639Z,61.36
2023-08-09T11:10:55.614Z,61.60
2023-08-09T11:11:55.634Z,60.33
2023-08-09T11:12:55.600Z,57.55
2023-08-09T11:13:56.682Z,59.92
2023-08-09T11:14:56.585Z,56.19
2023-08-09T11:15:55.582Z,60.88
2023-08-09T11:17:02.212Z,57.14
2023-08-09T11:17:57.623Z,58.38
2023-08-09T11:18:55.556Z,56.02
2023-08-09T11:19:55.544Z,55.32
2023-08-09T11:20:55.639Z,54.46
2023-08-09T11:21:56.467Z,54.11
2023-08-09T11:22:55.554Z,57.13
2023-08-09T11:23:55.526Z,56.51
2023-08-09T11:24:55.535Z,57.16
2023-08-09T11:25:55.557Z,56.11
2023-08-09T11:26:55.499Z,59.84
2023-08-09T11:27:55.499Z,58.91
2023-08-09T11:28:55.481Z,55.79
2023-08-09T11:29:55.474Z,52.65
2023-08-09T11:30:55.508Z,54.78
2023-08-09T11:31:55.464Z,50.82
2023-08-09T11:32:55.468Z,52.11
2023-08-09T11:33:55.433Z,53.87
2023-08-09T11:34:56.457Z,55.13
2023-08-09T11:35:55.450Z,52.24
2023-08-09T11:36:55.424Z,49.37
2023-08-09T11:37:55.413Z,50.24
2023-08-09T11:38:55.397Z,56.66
2023-08-09T11:39:55.448Z,50.06
2023-08-09T11:40:55.412Z,60.48
2023-08-09T11:41:55.446Z,62.02
2023-08-09T11:42:55.373Z,62.00
2023-08-09T11:43:55.370Z,62.00
2023-08-09T11:44:55.387Z,68.17
2023-08-09T11:45:55.992Z,69.03
2023-08-09T11:46:55.365Z,63.65
2023-08-09T11:47:55.362Z,63.30
2023-08-09T11:48:56.329Z,59.25
2023-08-09T11:49:55.354Z,75.00
2023-08-09T11:50:55.314Z,77.56
2023-08-09T11:51:55.321Z,65.30
2023-08-09T11:52:55.307Z,70.28
2023-08-09T11:53:55.320Z,60.07
2023-08-09T11:54:55.326Z,67.68
2023-08-09T11:55:55.284Z,62.77
2023-08-09T11:56:55.280Z,57.36
2023-08-09T11:57:55.266Z,58.19
2023-08-09T11:58:55.293Z,58.25
2023-08-09T12:00:03.584Z,58.09
2023-08-09T12:00:57.247Z,57.31
2023-08-09T12:01:55.269Z,57.43
2023-08-09T12:02:55.239Z,54.78
2023-08-09T12:03:55.347Z,50.74
2023-08-09T12:04:55.220Z,52.42
2023-08-09T12:05:56.852Z,52.13
2023-08-09T12:06:56.209Z,56.39
2023-08-09T12:07:55.219Z,54.75
2023-08-09T12:08:55.274Z,53.66
2023-08-09T12:09:55.183Z,55.00
2023-08-09T12:10:55.172Z,57.24
2023-08-09T12:11:55.171Z,53.85
2023-08-09T12:12:55.185Z,53.69
2023-08-09T12:13:55.148Z,52.03
2023-08-09T12:14:55.153Z,57.60
2023-08-09T12:15:55.163Z,54.33
2023-08-09T12:16:55.128Z,57.03
2023-08-09T12:17:55.187Z,60.60
2023-08-09T12:18:55.128Z,61.30
2023-08-09T12:19:55.120Z,59.59
2023-08-09T12:20:55.099Z,57.03
2023-08-09T12:21:55.145Z,56.18
2023-08-09T12:22:55.108Z,54.76
2023-08-09T12:23:55.080Z,52.81
2023-08-09T12:24:55.107Z,56.69
2023-08-09T12:25:55.058Z,57.65
2023-08-09T12:26:55.100Z,57.25
2023-08-09T12:27:55.066Z,51.99
2023-08-09T12:28:55.038Z,52.45
2023-08-09T12:29:55.042Z,56.90
2023-08-09T12:30:55.055Z,56.26
2023-08-09T12:31:55.063Z,54.19
2023-08-09T12:32:55.039Z,53.34
2023-08-09T12:33:54.994Z,53.66
2023-08-09T12:34:54.998Z,53.29
2023-08-09T12:35:54.978Z,53.41
2023-08-09T12:36:54.992Z,52.64
2023-08-09T12:37:54.964Z,54.73
2023-08-09T12:38:54.976Z,58.78
2023-08-09T12:39:54.952Z,57.68
2023-08-09T12:40:56.729Z,57.64
2023-08-09T12:41:54.958Z,58.67
2023-08-09T12:42:54.930Z,57.98
2023-08-09T12:43:54.915Z,59.16
2023-08-09T12:44:54.924Z,56.87
2023-08-09T12:45:54.975Z,57.98
2023-08-09T12:46:55.065Z,58.85
2023-08-09T12:47:54.940Z,61.06
2023-08-09T12:48:54.887Z,61.22
2023-08-09T12:49:54.873Z,61.23
2023-08-09T12:50:54.896Z,60.71
2023-08-09T12:51:54.887Z,58.12